createdAt,value
2023-03-11T00:03:40.710Z,80.70
2023-03-11T00:08:45.112Z,80.42
2023-03-11T00:13:50.721Z,80.56
2023-03-11T00:18:54.848Z,80.98
2023-03-11T00:24:01.414Z,83.53
2023-03-11T00:29:07.306Z,85.80
2023-03-11T00:34:11.797Z,87.60
2023-03-11T00:39:15.944Z,87.68
2023-03-11T00:44:22.944Z,90.39
2023-03-11T00:49:28.342Z,91.83
2023-03-11T00:54:32.605Z,90.78
2023-03-11T00:59:38.933Z,88.69
2023-03-11T01:04:43.763Z,87.24
2023-03-11T01:09:48.733Z,86.56
2023-03-11T01:14:54.533Z,83.57
2023-03-11T01:19:58.707Z,82.94
2023-03-11T01:25:02.916Z,80.56
2023-03-11T01:30:10.951Z,79.12
2023-03-11T01:35:16.503Z,78.16
2023-03-11T01:40:25.724Z,77.92
2023-03-11T01:46:03.941Z,78.35
2023-03-11T01:51:10.753Z,78.11
2023-03-11T01:56:15.498Z,76.96
2023-03-11T02:01:22.814Z,76.19
2023-03-11T02:06:28.164Z,75.36
2023-03-11T02:11:33.280Z,74.91
2023-03-11T02:16:39.906Z,75.35
2023-03-11T02:21:44.757Z,78.37
2023-03-11T02:26:57.362Z,80.80
2023-03-11T02:32:07.000Z,82.74
2023-03-11T02:37:15.132Z,80.89
2023-03-11T02:42:28.105Z,82.88
2023-03-11T02:47:32.807Z,84.38
2023-03-11T02:52:37.825Z,85.61
2023-03-11T02:57:44.214Z,85.91
2023-03-11T03:02:52.510Z,86.57
2023-03-11T03:07:58.429Z,84.62
2023-03-11T03:13:04.543Z,81.53
2023-03-11T03:18:08.820Z,80.75
2023-03-11T03:23:13.109Z,82.93
2023-03-11T03:28:20.136Z,84.37
2023-03-11T03:33:24.739Z,86.46
2023-03-11T03:38:28.988Z,89.89
2023-03-11T03:43:34.928Z,93.70
2023-03-11T03:48:39.761Z,93.89
2023-03-11T03:53:47.488Z,94.11
2023-03-11T03:58:54.717Z,96.77
2023-03-11T04:04:01.980Z,100.00
2023-03-11T04:09:06.934Z,100.00
2023-03-11T04:14:13.912Z,100.00
2023-03-11T04:19:26.443Z,100.00
2023-03-11T04:24:31.324Z,100.00
2023-03-11T04:29:38.027Z,100.00
2023-03-11T04:34:43.326Z,100.00
2023-03-11T04:39:53.688Z,100.00
2023-03-11T04:44:59.902Z,100.00
2023-03-11T04:50:07.278Z,100.00
2023-03-11T04:55:14.005Z,100.00
2023-03-11T05:00:25.368Z,100.00
2023-03-11T05:05:39.177Z,100.00
2023-03-11T05:10:44.638Z,100.00
2023-03-11T05:15:51.057Z,100.00
2023-03-11T05:20:55.566Z,100.00
2023-03-11T05:26:03.213Z,100.00
2023-03-11T05:31:11.669Z,100.00
2023-03-11T05:36:16.594Z,100.00
2023-03-11T05:41:22.425Z,100.00
2023-03-11T05:46:28.448Z,100.00
2023-03-11T05:51:33.573Z,100.00
2023-03-11T05:56:38.541Z,100.00
2023-03-11T06:01:46.518Z,100.00
2023-03-11T06:06:51.389Z,100.00
2023-03-11T06:11:58.449Z,100.00
2023-03-11T06:17:11.985Z,100.00
2023-03-11T06:22:16.482Z,100.00
2023-03-11T06:27:21.329Z,100.00
2023-03-11T06:32:27.165Z,100.00
2023-03-11T06:37:31.824Z,100.00
2023-03-11T06:42:36.949Z,100.00
2023-03-11T06:47:44.169Z,100.00
2023-03-11T06:52:49.071Z,100.00
2023-03-11T06:57:53.692Z,100.00
2023-03-11T07:02:59.703Z,100.00
2023-03-11T07:08:05.136Z,100.00
2023-03-11T07:13:10.426Z,100.00
2023-03-11T07:18:17.661Z,100.00
2023-03-11T07:23:22.667Z,100.00
2023-03-11T07:28:29.469Z,100.00
2023-03-11T07:33:35.275Z,100.00
2023-03-11T07:38:41.793Z,100.00
2023-03-11T07:43:46.304Z,100.00
2023-03-11T07:48:53.149Z,100.00
2023-03-11T07:53:59.072Z,100.00
2023-03-11T07:59:05.469Z,100.00
2023-03-11T08:04:14.437Z,100.00
2023-03-11T08:09:19.270Z,100.00
2023-03-11T08:14:23.862Z,100.00
2023-03-11T08:19:29.675Z,100.00
2023-03-11T08:24:36.108Z,100.00
2023-03-11T08:29:40.654Z,100.00
2023-03-11T08:34:46.762Z,100.00
2023-03-11T08:39:51.348Z,100.00
2023-03-11T08:44:55.706Z,100.00
2023-03-11T08:50:01.788Z,100.00
2023-03-11T08:55:09.075Z,100.00
2023-03-11T09:00:15.153Z,100.00
2023-03-11T09:05:21.255Z,100.00
2023-03-11T09:10:25.672Z,100.00
2023-03-11T09:15:30.143Z,100.00
2023-03-11T09:20:38.627Z,100.00
2023-03-11T09:25:43.045Z,100.00
2023-03-11T09:30:47.642Z,100.00
2023-03-11T09:35:53.381Z,100.00
2023-03-11T09:41:03.224Z,100.00
2023-03-11T09:46:29.850Z,100.00
2023-03-11T09:51:39.998Z,100.00
2023-03-11T09:56:46.072Z,100.00
2023-03-11T10:01:52.460Z,100.00
2023-03-11T10:07:00.340Z,100.00
2023-03-11T10:12:19.883Z,100.00
2023-03-11T10:17:45.101Z,100.00
2023-03-11T10:23:00.029Z,100.00
2023-03-11T10:28:08.783Z,100.00
2023-03-11T10:33:23.310Z,100.00
2023-03-11T10:38:35.407Z,100.00
2023-03-11T10:43:44.375Z,100.00
2023-03-11T10:48:48.708Z,100.00
2023-03-11T10:53:56.380Z,100.00
2023-03-11T10:59:01.317Z,100.00
2023-03-11T11:04:25.027Z,100.00
2023-03-11T11:09:32.681Z,100.00
2023-03-11T11:14:48.213Z,100.00
2023-03-11T11:19:53.672Z,100.00
2023-03-11T11:24:59.708Z,100.00
2023-03-11T11:30:16.032Z,100.00
2023-03-11T11:35:20.959Z,100.00
2023-03-11T11:40:29.601Z,100.00
2023-03-11T11:45:40.062Z,100.00
2023-03-11T11:50:53.038Z,100.00
2023-03-11T11:55:58.968Z,100.00
2023-03-11T12:01:14.953Z,100.00
2023-03-11T12:06:27.280Z,100.00
2023-03-11T12:11:41.971Z,100.00
2023-03-11T12:16:53.090Z,100.00
2023-03-11T12:22:45.658Z,100.00
2023-03-11T12:27:56.072Z,100.00
2023-03-11T12:33:04.138Z,100.00
2023-03-11T12:38:18.674Z,100.00
2023-03-11T12:43:30.749Z,100.00
2023-03-11T12:48:37.351Z,100.00
2023-03-11T12:53:48.352Z,100.00
2023-03-11T12:59:07.671Z,100.00
2023-03-11T13:04:26.691Z,100.00
2023-03-11T13:09:32.026Z,100.00
2023-03-11T13:14:37.814Z,100.00
2023-03-11T13:19:51.521Z,100.00
2023-03-11T13:24:56.336Z,100.00
2023-03-11T13:30:12.087Z,100.00
2023-03-11T13:35:32.648Z,100.00
2023-03-11T13:40:41.180Z,100.00
2023-03-11T13:45:54.366Z,100.00
2023-03-11T13:51:02.036Z,100.00
2023-03-11T13:56:07.181Z,100.00
2023-03-11T14:01:19.081Z,100.00
2023-03-11T14:06:23.773Z,100.00
2023-03-11T14:11:30.153Z,100.00
2023-03-11T14:16:44.484Z,100.00
2023-03-11T14:21:51.745Z,100.00
2023-03-11T14:26:59.345Z,100.00
2023-03-11T14:32:27.049Z,100.00
2023-03-11T14:37:34.493Z,100.00
2023-03-11T14:42:41.320Z,100.00
2023-03-11T14:47:52.518Z,100.00
2023-03-11T14:53:04.256Z,100.00
2023-03-11T14:58:16.217Z,100.00
2023-03-11T15:03:25.357Z,100.00
2023-03-11T15:08:33.266Z,100.00
2023-03-11T15:13:38.755Z,100.00
2023-03-11T15:18:44.568Z,100.00
2023-03-11T15:23:51.337Z,100.00
2023-03-11T15:28:59.305Z,100.00
2023-03-11T15:34:29.016Z,100.00
2023-03-11T15:39:45.359Z,100.00
2023-03-11T15:45:13.531Z,100.00
2023-03-11T15:50:26.002Z,100.00
2023-03-11T15:55:32.956Z,100.00
2023-03-11T16:00:38.323Z,100.00
2023-03-11T16:05:44.127Z,100.00
2023-03-11T16:10:48.670Z,100.00
2023-03-11T16:15:52.917Z,100.00
2023-03-11T16:20:58.722Z,100.00
2023-03-11T16:26:05.305Z,100.00
2023-03-11T16:31:10.006Z,100.00
2023-03-11T16:36:15.623Z,100.00
2023-03-11T16:41:20.052Z,100.00
2023-03-11T16:46:24.351Z,100.00
2023-03-11T16:51:29.995Z,100.00
2023-03-11T16:56:34.381Z,100.00
2023-03-11T17:01:39.316Z,100.00
2023-03-11T17:06:45.205Z,100.00
2023-03-11T17:11:50.334Z,100.00
2023-03-11T17:16:54.544Z,100.00
2023-03-11T17:22:00.192Z,100.00
2023-03-11T17:27:05.433Z,100.00
2023-03-11T17:32:10.141Z,100.00
2023-03-11T17:37:15.707Z,100.00
2023-03-11T17:42:19.820Z,100.00
2023-03-11T17:47:26.327Z,100.00
2023-03-11T17:52:32.430Z,100.00
2023-03-11T17:57:45.095Z,100.00
2023-03-11T18:02:51.437Z,100.00
2023-03-11T18:07:57.601Z,100.00
2023-03-11T18:13:01.743Z,100.00
2023-03-11T18:18:06.355Z,100.00
2023-03-11T18:23:12.590Z,100.00
2023-03-11T18:28:17.002Z,100.00
2023-03-11T18:33:21.367Z,100.00
2023-03-11T18:38:27.289Z,100.00
2023-03-11T18:43:31.402Z,100.00
2023-03-11T18:48:35.840Z,100.00
2023-03-11T18:53:42.919Z,100.00
2023-03-11T18:58:47.868Z,100.00
2023-03-11T19:03:54.283Z,100.00
2023-03-11T19:09:00.001Z,100.00
2023-03-11T19:14:04.441Z,100.00
2023-03-11T19:19:11.328Z,100.00
2023-03-11T19:24:17.696Z,100.00
2023-03-11T19:29:23.988Z,100.00
2023-03-11T19:34:29.161Z,100.00
2023-03-11T19:39:34.858Z,100.00
2023-03-11T19:44:39.659Z,100.00
2023-03-11T19:49:43.946Z,100.00
2023-03-11T19:54:50.457Z,100.00
2023-03-11T19:59:56.529Z,100.00
2023-03-11T20:05:00.808Z,100.00
2023-03-11T20:10:07.354Z,100.00
2023-03-11T20:15:12.783Z,100.00
2023-03-11T20:20:17.085Z,100.00
2023-03-11T20:25:22.919Z,100.00
2023-03-11T20:30:27.872Z,100.00
2023-03-11T20:35:32.685Z,100.00
2023-03-11T20:40:38.642Z,100.00
2023-03-11T20:45:42.944Z,100.00
2023-03-11T20:50:47.365Z,100.00
2023-03-11T20:55:52.868Z,100.00
2023-03-11T21:00:57.088Z,100.00
2023-03-11T21:06:01.360Z,99.90
2023-03-11T21:11:07.395Z,100.00
2023-03-11T21:16:12.214Z,100.00
2023-03-11T21:21:18.579Z,99.61
2023-03-11T21:26:24.725Z,100.00
2023-03-11T21:31:29.910Z,100.00
2023-03-11T21:36:35.107Z,100.00
2023-03-11T21:41:41.358Z,100.00
2023-03-11T21:46:45.807Z,100.00
2023-03-11T21:51:50.506Z,100.00
2023-03-11T21:56:56.582Z,100.00
2023-03-11T22:02:03.299Z,100.00
2023-03-11T22:07:07.839Z,100.00
2023-03-11T22:12:13.663Z,100.00
2023-03-11T22:17:18.571Z,100.00
2023-03-11T22:22:22.879Z,100.00
2023-03-11T22:27:28.715Z,100.00
2023-03-11T22:32:33.433Z,100.00
2023-03-11T22:37:37.694Z,100.00
2023-03-11T22:42:43.511Z,100.00
2023-03-11T22:47:47.906Z,100.00
2023-03-11T22:52:52.464Z,100.00
2023-03-11T22:57:58.401Z,100.00
2023-03-11T23:03:03.170Z,100.00
2023-03-11T23:08:07.458Z,100.00
2023-03-11T23:13:13.818Z,100.00
2023-03-11T23:18:18.547Z,100.00
2023-03-11T23:23:22.872Z,100.00
2023-03-11T23:28:28.714Z,100.00
2023-03-11T23:33:33.146Z,100.00
2023-03-11T23:38:38.272Z,100.00
2023-03-11T23:43:45.094Z,100.00
2023-03-11T23:48:49.316Z,100.00
2023-03-11T23:53:53.904Z,100.00
2023-03-11T23:58:59.696Z,100.00
